首页
METAR-TAF:

METAR-TAF

机场 :

阿塔蒂尔克国际机场

伊斯坦布尔 阿塔土克, 土耳其

纬度: 40-58N, 经度: 028-49E, 海拔: 48米

当前天气观测

该预报发布于31分钟前的01:50 UTC
风速10节,风向南转西南,在西南之间变化
温度 23°C
湿度 83%
气压 1010 hPa
能见度10公里或以上
1500米以下无云,无积雨云

METAR: LTBA 230150Z 20010KT 170V230 CAVOK 23/20 Q1010 NOSIG RMK RWY17L 21007KT 140V250 RWY05 20010KT RWY23 22010KT

时间: 05:21 (02:21 UTC)

预报

该预报发布于3小时和41分钟前的22:40 UTC
预报有效从23日的 00点(UTC)到 24日的 06点(UTC)
风速8节,风向南转西南
能见度10公里或以上
1500米以下无云,无积雨云
成为
从 23日的 00点(UTC)到 23日的 03点(UTC)
散云层高于3500英尺
成为
从 23日的 05点(UTC)到 23日的 08点(UTC)
风速15节,风向
多云层高于3000英尺
多云层高于8000英尺
短暂存在
从 23日的 08点(UTC)到 23日的 12点(UTC)
少量云层高于2000英尺, 积雨云.
多云层高于2500英尺
雷暴, 小雨
短暂存在
从 23日的 19点(UTC)到 23日的 23点(UTC)
能見度: 4000
散云层高于2000英尺, 积雨云.
多云层高于2500英尺
雷暴, 雨
成为
从 23日的 23点(UTC)到 24日的 02点(UTC)
能见度10公里或以上
1500米以下无云,无积雨云

TAF: LTBA 222240Z 2300/2406 21008KT CAVOK BECMG 2300/2303 SCT035 BECMG 2305/2308 01015KT BKN030 BKN080 TEMPO 2308/2312 -TSRA FEW020CB BKN025 TEMPO 2319/2323 4000 TSRA SCT020CB BKN025 BECMG 2323/2402 CAVOK

超过4000个机场的气象观测和天气预报(METAR&TAF报告)。

可查询的气象台以黄色和红色小点在地图上表示。

将鼠标移到小点上方,可查看气象台名称。

然后点击查看天气观测和预报。

如需切换地图:点击带黑十字的绿色按钮放大地图;点击带横线的绿色按钮缩小地图;或者点击绿色箭头查看邻近地区的地图。


METAR-TAF: